sensor_id;sensor_type;location;lat;lon;timestamp;temperature;humidity
11577;DHT22;5844;51.496;6.788;2023-05-10T00:01:37;13.80;16.20
11577;DHT22;5844;51.496;6.788;2023-05-10T00:04:03;13.80;18.10
11577;DHT22;5844;51.496;6.788;2023-05-10T00:06:29;13.70;18.50
11577;DHT22;5844;51.496;6.788;2023-05-10T00:08:55;13.80;17.30
11577;DHT22;5844;51.496;6.788;2023-05-10T00:11:21;13.80;12.50
11577;DHT22;5844;51.496;6.788;2023-05-10T00:13:46;13.80;11.70
11577;DHT22;5844;51.496;6.788;2023-05-10T00:16:13;13.70;11.70
11577;DHT22;5844;51.496;6.788;2023-05-10T00:18:39;13.70;12.50
11577;DHT22;5844;51.496;6.788;2023-05-10T00:21:05;13.70;8.00
11577;DHT22;5844;51.496;6.788;2023-05-10T00:23:31;13.60;2.30
11577;DHT22;5844;51.496;6.788;2023-05-10T00:25:56;13.50;1.00
11577;DHT22;5844;51.496;6.788;2023-05-10T00:28:22;13.50;1.00
11577;DHT22;5844;51.496;6.788;2023-05-10T00:30:48;13.40;1.00
11577;DHT22;5844;51.496;6.788;2023-05-10T00:33:13;13.40;2.70
11577;DHT22;5844;51.496;6.788;2023-05-10T00:35:39;13.40;2.60
11577;DHT22;5844;51.496;6.788;2023-05-10T00:38:05;13.40;1.00
11577;DHT22;5844;51.496;6.788;2023-05-10T00:40:31;13.30;1.00
11577;DHT22;5844;51.496;6.788;2023-05-10T00:42:57;13.30;1.00
11577;DHT22;5844;51.496;6.788;2023-05-10T00:45:23;13.30;1.00
11577;DHT22;5844;51.496;6.788;2023-05-10T00:47:49;13.30;1.00
11577;DHT22;5844;51.496;6.788;2023-05-10T00:50:17;13.20;1.00
11577;DHT22;5844;51.496;6.788;2023-05-10T00:52:43;13.30;1.00
11577;DHT22;5844;51.496;6.788;2023-05-10T00:55:10;13.30;1.50
11577;DHT22;5844;51.496;6.788;2023-05-10T00:57:37;13.30;3.90
11577;DHT22;5844;51.496;6.788;2023-05-10T01:00:03;13.30;4.70
11577;DHT22;5844;51.496;6.788;2023-05-10T01:02:29;13.30;8.30
11577;DHT22;5844;51.496;6.788;2023-05-10T01:04:55;13.30;8.40
11577;DHT22;5844;51.496;6.788;2023-05-10T01:07:20;13.30;7.00
11577;DHT22;5844;51.496;6.788;2023-05-10T01:09:46;13.30;4.70
11577;DHT22;5844;51.496;6.788;2023-05-10T01:12:12;13.30;5.50
11577;DHT22;5844;51.496;6.788;2023-05-10T01:14:38;13.30;7.20
11577;DHT22;5844;51.496;6.788;2023-05-10T01:17:05;13.30;8.10
11577;DHT22;5844;51.496;6.788;2023-05-10T01:19:32;13.30;10.30
11577;DHT22;5844;51.496;6.788;2023-05-10T01:27:53;13.30;12.30
11577;DHT22;5844;51.496;6.788;2023-05-10T01:35:55;13.40;17.70
11577;DHT22;5844;51.496;6.788;2023-05-10T01:38:38;13.40;16.60
11577;DHT22;5844;51.496;6.788;2023-05-10T01:41:22;13.40;14.00
11577;DHT22;5844;51.496;6.788;2023-05-10T01:47:07;13.20;1.00
11577;DHT22;5844;51.496;6.788;2023-05-10T01:49:50;13.20;1.00
11577;DHT22;5844;51.496;6.788;2023-05-10T01:52:18;13.10;1.00
11577;DHT22;5844;51.496;6.788;2023-05-10T01:54:50;13.10;1.00
11577;DHT22;5844;51.496;6.788;2023-05-10T01:57:18;13.20;1.00
11577;DHT22;5844;51.496;6.788;2023-05-10T01:59:47;13.10;1.00
11577;DHT22;5844;51.496;6.788;2023-05-10T02:02:15;13.20;1.00
11577;DHT22;5844;51.496;6.788;2023-05-10T02:04:43;13.20;1.00
11577;DHT22;5844;51.496;6.788;2023-05-10T02:07:10;13.20;1.00
11577;DHT22;5844;51.496;6.788;2023-05-10T02:09:37;13.20;1.00
11577;DHT22;5844;51.496;6.788;2023-05-10T02:12:05;13.20;1.00
11577;DHT22;5844;51.496;6.788;2023-05-10T02:14:34;13.20;1.00
11577;DHT22;5844;51.496;6.788;2023-05-10T02:17:02;13.20;1.50
11577;DHT22;5844;51.496;6.788;2023-05-10T02:19:30;13.20;1.00
11577;DHT22;5844;51.496;6.788;2023-05-10T02:21:57;13.20;1.00
11577;DHT22;5844;51.496;6.788;2023-05-10T02:24:25;13.20;1.80
11577;DHT22;5844;51.496;6.788;2023-05-10T02:26:54;13.10;3.90
11577;DHT22;5844;51.496;6.788;2023-05-10T02:29:22;13.10;4.40
11577;DHT22;5844;51.496;6.788;2023-05-10T02:31:51;13.10;5.20
11577;DHT22;5844;51.496;6.788;2023-05-10T02:34:17;13.10;6.60
11577;DHT22;5844;51.496;6.788;2023-05-10T02:36:43;13.10;6.40
11577;DHT22;5844;51.496;6.788;2023-05-10T02:39:09;13.10;8.50
11577;DHT22;5844;51.496;6.788;2023-05-10T02:41:40;13.10;10.00
11577;DHT22;5844;51.496;6.788;2023-05-10T02:44:07;13.10;10.60
11577;DHT22;5844;51.496;6.788;2023-05-10T02:46:33;13.20;13.50
11577;DHT22;5844;51.496;6.788;2023-05-10T02:49:00;13.20;13.40
11577;DHT22;5844;51.496;6.788;2023-05-10T02:51:30;13.20;12.90
11577;DHT22;5844;51.496;6.788;2023-05-10T02:53:57;13.20;12.20
11577;DHT22;5844;51.496;6.788;2023-05-10T02:56:34;13.20;10.30
11577;DHT22;5844;51.496;6.788;2023-05-10T02:59:01;13.20;6.10
11577;DHT22;5844;51.496;6.788;2023-05-10T03:01:26;13.20;8.00
11577;DHT22;5844;51.496;6.788;2023-05-10T03:03:52;13.10;7.40
11577;DHT22;5844;51.496;6.788;2023-05-10T03:06:18;13.10;8.20
11577;DHT22;5844;51.496;6.788;2023-05-10T03:08:44;13.10;7.20
11577;DHT22;5844;51.496;6.788;2023-05-10T03:11:35;13.20;5.20
11577;DHT22;5844;51.496;6.788;2023-05-10T03:19:43;13.20;7.20
11577;DHT22;5844;51.496;6.788;2023-05-10T03:22:11;13.20;8.70
11577;DHT22;5844;51.496;6.788;2023-05-10T03:24:39;13.20;9.70
11577;DHT22;5844;51.496;6.788;2023-05-10T03:27:08;13.20;11.90
11577;DHT22;5844;51.496;6.788;2023-05-10T03:29:33;13.20;13.40
11577;DHT22;5844;51.496;6.788;2023-05-10T03:32:00;13.20;12.00
11577;DHT22;5844;51.496;6.788;2023-05-10T03:34:26;13.30;13.10
11577;DHT22;5844;51.496;6.788;2023-05-10T03:36:52;13.30;11.20
11577;DHT22;5844;51.496;6.788;2023-05-10T03:39:18;13.30;10.90
11577;DHT22;5844;51.496;6.788;2023-05-10T03:41:43;13.30;8.70
11577;DHT22;5844;51.496;6.788;2023-05-10T03:44:09;13.30;10.20
11577;DHT22;5844;51.496;6.788;2023-05-10T03:46:35;13.30;9.60
11577;DHT22;5844;51.496;6.788;2023-05-10T03:49:00;13.30;28.50
11577;DHT22;5844;51.496;6.788;2023-05-10T03:51:26;13.30;7.50
11577;DHT22;5844;51.496;6.788;2023-05-10T03:53:54;13.30;1.70
11577;DHT22;5844;51.496;6.788;2023-05-10T03:56:20;13.30;2.90
11577;DHT22;5844;51.496;6.788;2023-05-10T03:58:46;13.30;1.00
11577;DHT22;5844;51.496;6.788;2023-05-10T04:01:12;13.30;1.00
11577;DHT22;5844;51.496;6.788;2023-05-10T04:03:38;13.30;1.00
11577;DHT22;5844;51.496;6.788;2023-05-10T04:06:04;13.30;1.00
11577;DHT22;5844;51.496;6.788;2023-05-10T04:08:30;13.20;1.00
11577;DHT22;5844;51.496;6.788;2023-05-10T04:11:10;13.30;1.50
11577;DHT22;5844;51.496;6.788;2023-05-10T04:13:36;13.30;3.40
11577;DHT22;5844;51.496;6.788;2023-05-10T04:16:02;13.20;1.00
11577;DHT22;5844;51.496;6.788;2023-05-10T04:18:28;13.20;1.00
11577;DHT22;5844;51.496;6.788;2023-05-10T04:20:54;13.30;2.50
11577;DHT22;5844;51.496;6.788;2023-05-10T04:23:19;13.30;3.20
11577;DHT22;5844;51.496;6.788;2023-05-10T04:25:45;13.30;4.40
11577;DHT22;5844;51.496;6.788;2023-05-10T04:28:10;13.30;3.50
11577;DHT22;5844;51.496;6.788;2023-05-10T04:30:36;13.30;3.00
11577;DHT22;5844;51.496;6.788;2023-05-10T04:33:02;13.30;22.90
11577;DHT22;5844;51.496;6.788;2023-05-10T04:35:28;13.40;2.50
11577;DHT22;5844;51.496;6.788;2023-05-10T04:37:54;13.40;1.90
11577;DHT22;5844;51.496;6.788;2023-05-10T04:40:20;13.40;1.00
11577;DHT22;5844;51.496;6.788;2023-05-10T04:42:46;13.30;2.10
11577;DHT22;5844;51.496;6.788;2023-05-10T04:45:12;13.40;3.30
11577;DHT22;5844;51.496;6.788;2023-05-10T04:47:38;13.40;3.20
11577;DHT22;5844;51.496;6.788;2023-05-10T04:50:04;13.40;5.10
11577;DHT22;5844;51.496;6.788;2023-05-10T04:52:30;13.40;5.00
11577;DHT22;5844;51.496;6.788;2023-05-10T04:54:55;13.40;4.20
11577;DHT22;5844;51.496;6.788;2023-05-10T04:57:21;13.40;1.00
11577;DHT22;5844;51.496;6.788;2023-05-10T04:59:47;13.40;1.90
11577;DHT22;5844;51.496;6.788;2023-05-10T05:02:13;13.50;2.20
11577;DHT22;5844;51.496;6.788;2023-05-10T05:04:38;13.50;1.00
11577;DHT22;5844;51.496;6.788;2023-05-10T05:07:04;13.50;1.00
11577;DHT22;5844;51.496;6.788;2023-05-10T05:09:30;13.50;1.00
11577;DHT22;5844;51.496;6.788;2023-05-10T05:11:57;13.50;1.00
11577;DHT22;5844;51.496;6.788;2023-05-10T05:14:23;13.50;1.00
11577;DHT22;5844;51.496;6.788;2023-05-10T05:16:51;13.60;1.00
11577;DHT22;5844;51.496;6.788;2023-05-10T05:19:16;13.60;1.00
11577;DHT22;5844;51.496;6.788;2023-05-10T05:21:42;13.60;1.00
11577;DHT22;5844;51.496;6.788;2023-05-10T05:24:08;13.60;1.00
11577;DHT22;5844;51.496;6.788;2023-05-10T05:26:34;13.70;1.00
11577;DHT22;5844;51.496;6.788;2023-05-10T05:28:59;13.70;1.00
11577;DHT22;5844;51.496;6.788;2023-05-10T05:31:25;13.60;1.00
11577;DHT22;5844;51.496;6.788;2023-05-10T05:33:51;13.70;1.00
11577;DHT22;5844;51.496;6.788;2023-05-10T05:36:17;13.80;1.00
11577;DHT22;5844;51.496;6.788;2023-05-10T05:38:42;13.80;1.00
11577;DHT22;5844;51.496;6.788;2023-05-10T05:41:08;13.80;1.00
11577;DHT22;5844;51.496;6.788;2023-05-10T05:43:34;13.80;1.00
11577;DHT22;5844;51.496;6.788;2023-05-10T05:45:59;13.90;1.00
11577;DHT22;5844;51.496;6.788;2023-05-10T05:48:25;13.90;1.00
11577;DHT22;5844;51.496;6.788;2023-05-10T05:50:54;13.90;1.00
11577;DHT22;5844;51.496;6.788;2023-05-10T05:53:21;13.90;1.00
11577;DHT22;5844;51.496;6.788;2023-05-10T05:55:57;13.90;1.00
11577;DHT22;5844;51.496;6.788;2023-05-10T05:58:25;13.90;1.00
11577;DHT22;5844;51.496;6.788;2023-05-10T06:00:51;13.90;1.00
11577;DHT22;5844;51.496;6.788;2023-05-10T06:03:18;14.00;1.00
11577;DHT22;5844;51.496;6.788;2023-05-10T06:05:43;14.00;1.00
11577;DHT22;5844;51.496;6.788;2023-05-10T06:08:09;13.90;1.00
11577;DHT22;5844;51.496;6.788;2023-05-10T06:10:35;13.90;1.00
11577;DHT22;5844;51.496;6.788;2023-05-10T06:13:02;13.80;1.00
11577;DHT22;5844;51.496;6.788;2023-05-10T06:15:28;13.80;1.00
11577;DHT22;5844;51.496;6.788;2023-05-10T06:17:53;13.80;1.00
11577;DHT22;5844;51.496;6.788;2023-05-10T06:20:19;14.40;1.00
11577;DHT22;5844;51.496;6.788;2023-05-10T06:22:44;13.70;1.00
11577;DHT22;5844;51.496;6.788;2023-05-10T06:25:10;13.70;1.00
11577;DHT22;5844;51.496;6.788;2023-05-10T06:27:37;13.70;1.00
11577;DHT22;5844;51.496;6.788;2023-05-10T06:30:04;13.70;1.00
11577;DHT22;5844;51.496;6.788;2023-05-10T06:32:30;13.70;1.00
11577;DHT22;5844;51.496;6.788;2023-05-10T06:34:56;13.70;1.00
11577;DHT22;5844;51.496;6.788;2023-05-10T06:37:22;13.80;1.00
11577;DHT22;5844;51.496;6.788;2023-05-10T06:39:47;13.70;1.00
11577;DHT22;5844;51.496;6.788;2023-05-10T06:42:13;13.70;1.00
11577;DHT22;5844;51.496;6.788;2023-05-10T06:44:39;13.80;1.00
11577;DHT22;5844;51.496;6.788;2023-05-10T06:47:05;13.80;1.00
11577;DHT22;5844;51.496;6.788;2023-05-10T06:49:30;13.70;1.00
11577;DHT22;5844;51.496;6.788;2023-05-10T06:51:56;13.80;1.00
11577;DHT22;5844;51.496;6.788;2023-05-10T06:54:22;13.80;1.00
11577;DHT22;5844;51.496;6.788;2023-05-10T06:56:48;13.80;1.00
11577;DHT22;5844;51.496;6.788;2023-05-10T06:59:14;13.80;1.00
11577;DHT22;5844;51.496;6.788;2023-05-10T07:01:41;13.80;1.00
11577;DHT22;5844;51.496;6.788;2023-05-10T07:04:07;13.80;1.00
11577;DHT22;5844;51.496;6.788;2023-05-10T07:06:33;13.80;1.00
11577;DHT22;5844;51.496;6.788;2023-05-10T07:08:59;14.00;1.00
11577;DHT22;5844;51.496;6.788;2023-05-10T07:11:25;14.00;1.00
11577;DHT22;5844;51.496;6.788;2023-05-10T07:13:52;14.00;1.00
11577;DHT22;5844;51.496;6.788;2023-05-10T07:16:17;14.00;1.00
11577;DHT22;5844;51.496;6.788;2023-05-10T07:18:43;14.10;1.00
11577;DHT22;5844;51.496;6.788;2023-05-10T07:21:08;14.10;1.00
11577;DHT22;5844;51.496;6.788;2023-05-10T07:23:34;14.10;1.00
11577;DHT22;5844;51.496;6.788;2023-05-10T07:26:00;14.10;1.00
11577;DHT22;5844;51.496;6.788;2023-05-10T07:28:28;14.10;1.00
11577;DHT22;5844;51.496;6.788;2023-05-10T07:30:54;14.10;1.00
11577;DHT22;5844;51.496;6.788;2023-05-10T07:33:19;14.20;1.00
11577;DHT22;5844;51.496;6.788;2023-05-10T07:35:45;14.20;1.00
11577;DHT22;5844;51.496;6.788;2023-05-10T07:38:10;14.30;1.00
11577;DHT22;5844;51.496;6.788;2023-05-10T07:40:36;14.50;1.00
11577;DHT22;5844;51.496;6.788;2023-05-10T07:43:02;14.50;1.00
11577;DHT22;5844;51.496;6.788;2023-05-10T07:45:28;14.60;1.00
11577;DHT22;5844;51.496;6.788;2023-05-10T07:47:53;14.60;1.00
11577;DHT22;5844;51.496;6.788;2023-05-10T07:50:19;14.80;1.00
11577;DHT22;5844;51.496;6.788;2023-05-10T07:52:46;14.80;1.00
11577;DHT22;5844;51.496;6.788;2023-05-10T07:55:12;14.80;1.00
11577;DHT22;5844;51.496;6.788;2023-05-10T07:57:38;14.70;1.00
11577;DHT22;5844;51.496;6.788;2023-05-10T08:00:05;14.80;1.00
11577;DHT22;5844;51.496;6.788;2023-05-10T08:02:30;14.80;1.00
11577;DHT22;5844;51.496;6.788;2023-05-10T08:04:56;14.80;1.00
11577;DHT22;5844;51.496;6.788;2023-05-10T08:07:24;14.90;1.00
11577;DHT22;5844;51.496;6.788;2023-05-10T08:09:50;15.00;1.00
11577;DHT22;5844;51.496;6.788;2023-05-10T08:12:15;15.10;1.00
11577;DHT22;5844;51.496;6.788;2023-05-10T08:14:41;15.20;1.00
11577;DHT22;5844;51.496;6.788;2023-05-10T08:17:08;15.50;1.00
11577;DHT22;5844;51.496;6.788;2023-05-10T08:19:34;15.60;1.00
11577;DHT22;5844;51.496;6.788;2023-05-10T08:22:00;15.80;1.00
11577;DHT22;5844;51.496;6.788;2023-05-10T08:24:25;15.90;1.00
11577;DHT22;5844;51.496;6.788;2023-05-10T08:26:51;16.20;1.00
11577;DHT22;5844;51.496;6.788;2023-05-10T08:29:17;16.40;1.00
11577;DHT22;5844;51.496;6.788;2023-05-10T08:31:42;16.40;1.00
11577;DHT22;5844;51.496;6.788;2023-05-10T08:34:08;16.30;1.00
11577;DHT22;5844;51.496;6.788;2023-05-10T08:36:34;16.50;1.00
11577;DHT22;5844;51.496;6.788;2023-05-10T08:38:59;16.90;1.00
11577;DHT22;5844;51.496;6.788;2023-05-10T08:41:25;17.10;1.00
11577;DHT22;5844;51.496;6.788;2023-05-10T08:43:52;16.70;1.00
11577;DHT22;5844;51.496;6.788;2023-05-10T08:46:20;16.70;1.00
11577;DHT22;5844;51.496;6.788;2023-05-10T08:48:47;16.80;1.00
11577;DHT22;5844;51.496;6.788;2023-05-10T08:51:18;17.00;1.00
11577;DHT22;5844;51.496;6.788;2023-05-10T08:53:45;17.10;1.00
11577;DHT22;5844;51.496;6.788;2023-05-10T08:56:11;17.20;1.00
11577;DHT22;5844;51.496;6.788;2023-05-10T08:58:38;17.00;1.00
11577;DHT22;5844;51.496;6.788;2023-05-10T09:01:04;17.10;1.00
11577;DHT22;5844;51.496;6.788;2023-05-10T09:03:30;16.90;1.00
11577;DHT22;5844;51.496;6.788;2023-05-10T09:05:56;16.80;1.00
11577;DHT22;5844;51.496;6.788;2023-05-10T09:08:26;16.60;1.00
11577;DHT22;5844;51.496;6.788;2023-05-10T09:10:53;16.70;1.00
11577;DHT22;5844;51.496;6.788;2023-05-10T09:13:19;16.60;1.00
11577;DHT22;5844;51.496;6.788;2023-05-10T09:15:46;16.80;1.00
11577;DHT22;5844;51.496;6.788;2023-05-10T09:18:13;17.10;1.00
11577;DHT22;5844;51.496;6.788;2023-05-10T09:20:39;17.40;1.00
11577;DHT22;5844;51.496;6.788;2023-05-10T09:23:05;17.30;1.00
11577;DHT22;5844;51.496;6.788;2023-05-10T09:25:31;17.20;1.00
11577;DHT22;5844;51.496;6.788;2023-05-10T09:27:59;17.40;1.00
11577;DHT22;5844;51.496;6.788;2023-05-10T09:30:26;17.40;1.00
11577;DHT22;5844;51.496;6.788;2023-05-10T09:32:53;17.20;1.00
11577;DHT22;5844;51.496;6.788;2023-05-10T09:35:21;17.10;1.00
11577;DHT22;5844;51.496;6.788;2023-05-10T09:37:49;16.90;1.00
11577;DHT22;5844;51.496;6.788;2023-05-10T09:40:17;16.70;1.00
11577;DHT22;5844;51.496;6.788;2023-05-10T09:42:51;16.70;1.00
11577;DHT22;5844;51.496;6.788;2023-05-10T09:45:17;16.70;1.00
11577;DHT22;5844;51.496;6.788;2023-05-10T09:47:43;16.50;1.00
11577;DHT22;5844;51.496;6.788;2023-05-10T09:50:09;16.60;1.00
11577;DHT22;5844;51.496;6.788;2023-05-10T09:52:52;16.80;1.00
11577;DHT22;5844;51.496;6.788;2023-05-10T09:55:23;16.80;1.00
11577;DHT22;5844;51.496;6.788;2023-05-10T09:57:59;16.60;1.00
11577;DHT22;5844;51.496;6.788;2023-05-10T10:00:26;16.20;1.00
11577;DHT22;5844;51.496;6.788;2023-05-10T10:02:57;16.00;1.00
11577;DHT22;5844;51.496;6.788;2023-05-10T10:05:30;15.70;1.00
11577;DHT22;5844;51.496;6.788;2023-05-10T10:08:02;15.50;1.00
11577;DHT22;5844;51.496;6.788;2023-05-10T10:10:29;15.50;1.00
11577;DHT22;5844;51.496;6.788;2023-05-10T10:12:56;15.40;1.00
11577;DHT22;5844;51.496;6.788;2023-05-10T10:15:22;15.30;1.00
11577;DHT22;5844;51.496;6.788;2023-05-10T10:17:49;15.10;1.00
11577;DHT22;5844;51.496;6.788;2023-05-10T10:20:15;15.20;1.00
11577;DHT22;5844;51.496;6.788;2023-05-10T10:22:41;15.20;1.00
11577;DHT22;5844;51.496;6.788;2023-05-10T10:25:11;15.20;1.00
11577;DHT22;5844;51.496;6.788;2023-05-10T10:30:41;15.50;1.00
11577;DHT22;5844;51.496;6.788;2023-05-10T10:35:54;15.60;1.00
11577;DHT22;5844;51.496;6.788;2023-05-10T10:38:21;15.70;1.00
11577;DHT22;5844;51.496;6.788;2023-05-10T10:40:47;15.80;1.00
11577;DHT22;5844;51.496;6.788;2023-05-10T10:43:24;15.90;1.00
11577;DHT22;5844;51.496;6.788;2023-05-10T10:48:34;16.10;1.00
11577;DHT22;5844;51.496;6.788;2023-05-10T10:51:01;16.00;1.00
11577;DHT22;5844;51.496;6.788;2023-05-10T10:53:27;15.80;1.00
11577;DHT22;5844;51.496;6.788;2023-05-10T10:56:08;15.80;1.00
11577;DHT22;5844;51.496;6.788;2023-05-10T10:58:36;15.80;1.00
11577;DHT22;5844;51.496;6.788;2023-05-10T11:01:17;16.00;1.00
11577;DHT22;5844;51.496;6.788;2023-05-10T11:06:35;16.50;1.00
11577;DHT22;5844;51.496;6.788;2023-05-10T11:09:11;16.80;1.00
11577;DHT22;5844;51.496;6.788;2023-05-10T11:11:54;16.70;1.00
11577;DHT22;5844;51.496;6.788;2023-05-10T11:14:23;16.80;1.00
11577;DHT22;5844;51.496;6.788;2023-05-10T11:16:50;16.70;1.00
11577;DHT22;5844;51.496;6.788;2023-05-10T11:19:17;16.50;1.00
11577;DHT22;5844;51.496;6.788;2023-05-10T11:21:51;16.20;1.00
11577;DHT22;5844;51.496;6.788;2023-05-10T11:24:22;16.00;1.00
11577;DHT22;5844;51.496;6.788;2023-05-10T11:26:53;15.90;1.00
11577;DHT22;5844;51.496;6.788;2023-05-10T11:29:19;15.90;1.00
11577;DHT22;5844;51.496;6.788;2023-05-10T11:31:46;16.10;1.00
11577;DHT22;5844;51.496;6.788;2023-05-10T11:34:26;15.90;1.00
11577;DHT22;5844;51.496;6.788;2023-05-10T11:36:53;15.60;1.00
11577;DHT22;5844;51.496;6.788;2023-05-10T11:39:20;15.60;1.00
11577;DHT22;5844;51.496;6.788;2023-05-10T11:41:48;15.70;1.00
11577;DHT22;5844;51.496;6.788;2023-05-10T11:44:14;15.90;1.00
11577;DHT22;5844;51.496;6.788;2023-05-10T11:46:40;15.90;1.00
11577;DHT22;5844;51.496;6.788;2023-05-10T11:49:07;15.90;1.00
11577;DHT22;5844;51.496;6.788;2023-05-10T11:51:34;16.00;1.00
11577;DHT22;5844;51.496;6.788;2023-05-10T11:54:09;16.00;1.00
11577;DHT22;5844;51.496;6.788;2023-05-10T11:56:35;16.10;1.00
11577;DHT22;5844;51.496;6.788;2023-05-10T11:59:01;16.20;1.00
11577;DHT22;5844;51.496;6.788;2023-05-10T12:01:28;16.30;1.00
11577;DHT22;5844;51.496;6.788;2023-05-10T12:03:55;16.50;1.00
11577;DHT22;5844;51.496;6.788;2023-05-10T12:06:32;16.70;1.00
11577;DHT22;5844;51.496;6.788;2023-05-10T12:09:06;16.60;1.00
11577;DHT22;5844;51.496;6.788;2023-05-10T12:11:37;16.60;1.00
11577;DHT22;5844;51.496;6.788;2023-05-10T12:14:04;16.60;1.00
11577;DHT22;5844;51.496;6.788;2023-05-10T12:16:30;16.50;1.00
11577;DHT22;5844;51.496;6.788;2023-05-10T12:18:59;16.30;1.00
11577;DHT22;5844;51.496;6.788;2023-05-10T12:21:27;16.20;1.00
11577;DHT22;5844;51.496;6.788;2023-05-10T12:23:54;16.20;1.00
11577;DHT22;5844;51.496;6.788;2023-05-10T12:26:24;16.40;1.00
11577;DHT22;5844;51.496;6.788;2023-05-10T12:28:53;16.50;1.00
11577;DHT22;5844;51.496;6.788;2023-05-10T12:31:19;16.70;1.00
11577;DHT22;5844;51.496;6.788;2023-05-10T12:33:45;16.70;1.00
11577;DHT22;5844;51.496;6.788;2023-05-10T12:36:13;16.80;1.00
11577;DHT22;5844;51.496;6.788;2023-05-10T12:38:41;17.20;1.00
11577;DHT22;5844;51.496;6.788;2023-05-10T12:41:13;17.40;1.00
11577;DHT22;5844;51.496;6.788;2023-05-10T12:43:40;17.80;1.00
11577;DHT22;5844;51.496;6.788;2023-05-10T12:48:31;17.90;1.00
11577;DHT22;5844;51.496;6.788;2023-05-10T12:50:59;18.20;1.00
11577;DHT22;5844;51.496;6.788;2023-05-10T12:53:25;18.50;1.00
11577;DHT22;5844;51.496;6.788;2023-05-10T12:55:51;18.90;1.00
11577;DHT22;5844;51.496;6.788;2023-05-10T12:58:16;19.80;1.00
11577;DHT22;5844;51.496;6.788;2023-05-10T13:00:42;21.40;1.00
11577;DHT22;5844;51.496;6.788;2023-05-10T13:03:09;22.50;1.00
11577;DHT22;5844;51.496;6.788;2023-05-10T13:05:35;22.40;1.00
11577;DHT22;5844;51.496;6.788;2023-05-10T13:08:01;21.90;1.00
11577;DHT22;5844;51.496;6.788;2023-05-10T13:10:29;21.30;1.00
11577;DHT22;5844;51.496;6.788;2023-05-10T13:12:56;20.60;1.00
11577;DHT22;5844;51.496;6.788;2023-05-10T13:15:22;20.50;1.00
11577;DHT22;5844;51.496;6.788;2023-05-10T13:17:48;20.10;1.00
11577;DHT22;5844;51.496;6.788;2023-05-10T13:20:14;19.90;1.00
11577;DHT22;5844;51.496;6.788;2023-05-10T13:22:41;19.60;1.00
11577;DHT22;5844;51.496;6.788;2023-05-10T13:25:07;19.40;1.00
11577;DHT22;5844;51.496;6.788;2023-05-10T13:27:33;19.40;1.00
11577;DHT22;5844;51.496;6.788;2023-05-10T13:29:59;19.30;1.00
11577;DHT22;5844;51.496;6.788;2023-05-10T13:32:25;19.60;1.00
11577;DHT22;5844;51.496;6.788;2023-05-10T13:34:51;19.70;1.00
11577;DHT22;5844;51.496;6.788;2023-05-10T13:37:17;19.50;1.00
11577;DHT22;5844;51.496;6.788;2023-05-10T13:39:42;19.80;1.00
11577;DHT22;5844;51.496;6.788;2023-05-10T13:42:08;20.10;1.00
11577;DHT22;5844;51.496;6.788;2023-05-10T13:44:34;19.80;1.00
11577;DHT22;5844;51.496;6.788;2023-05-10T13:47:00;20.10;1.00
11577;DHT22;5844;51.496;6.788;2023-05-10T13:49:26;19.30;1.00
11577;DHT22;5844;51.496;6.788;2023-05-10T13:51:52;20.20;1.00
11577;DHT22;5844;51.496;6.788;2023-05-10T13:54:18;20.90;1.00
11577;DHT22;5844;51.496;6.788;2023-05-10T13:56:47;21.00;1.00
11577;DHT22;5844;51.496;6.788;2023-05-10T13:59:14;20.90;1.00
11577;DHT22;5844;51.496;6.788;2023-05-10T14:01:40;20.90;1.00
11577;DHT22;5844;51.496;6.788;2023-05-10T14:04:06;20.40;1.00
11577;DHT22;5844;51.496;6.788;2023-05-10T14:06:35;20.10;1.00
11577;DHT22;5844;51.496;6.788;2023-05-10T14:09:02;20.20;1.00
11577;DHT22;5844;51.496;6.788;2023-05-10T14:11:27;20.20;1.00
11577;DHT22;5844;51.496;6.788;2023-05-10T14:13:53;19.90;1.00
11577;DHT22;5844;51.496;6.788;2023-05-10T14:16:19;19.90;1.00
11577;DHT22;5844;51.496;6.788;2023-05-10T14:18:45;20.10;1.00
11577;DHT22;5844;51.496;6.788;2023-05-10T14:21:11;20.10;1.00
11577;DHT22;5844;51.496;6.788;2023-05-10T14:23:37;20.10;1.00
11577;DHT22;5844;51.496;6.788;2023-05-10T14:26:03;20.10;1.00
11577;DHT22;5844;51.496;6.788;2023-05-10T14:28:28;20.00;1.00
11577;DHT22;5844;51.496;6.788;2023-05-10T14:30:54;20.20;1.00
11577;DHT22;5844;51.496;6.788;2023-05-10T14:33:20;20.50;1.00
11577;DHT22;5844;51.496;6.788;2023-05-10T14:35:46;20.60;1.00
11577;DHT22;5844;51.496;6.788;2023-05-10T14:38:13;20.60;1.00
11577;DHT22;5844;51.496;6.788;2023-05-10T14:40:38;20.20;1.00
11577;DHT22;5844;51.496;6.788;2023-05-10T14:43:04;20.20;1.00
11577;DHT22;5844;51.496;6.788;2023-05-10T14:45:30;20.20;1.00
11577;DHT22;5844;51.496;6.788;2023-05-10T14:47:57;20.20;1.00
11577;DHT22;5844;51.496;6.788;2023-05-10T14:50:23;20.10;1.00
11577;DHT22;5844;51.496;6.788;2023-05-10T14:52:49;19.70;1.00
11577;DHT22;5844;51.496;6.788;2023-05-10T14:55:15;19.60;1.00
11577;DHT22;5844;51.496;6.788;2023-05-10T14:57:41;19.50;1.00
11577;DHT22;5844;51.496;6.788;2023-05-10T15:00:07;19.60;1.00
11577;DHT22;5844;51.496;6.788;2023-05-10T15:02:33;19.50;1.00
11577;DHT22;5844;51.496;6.788;2023-05-10T15:04:59;19.40;1.00
11577;DHT22;5844;51.496;6.788;2023-05-10T15:07:25;19.40;1.00
11577;DHT22;5844;51.496;6.788;2023-05-10T15:09:51;19.10;1.00
11577;DHT22;5844;51.496;6.788;2023-05-10T15:12:17;19.00;1.00
11577;DHT22;5844;51.496;6.788;2023-05-10T15:14:43;18.90;1.00
11577;DHT22;5844;51.496;6.788;2023-05-10T15:17:09;18.60;1.00
11577;DHT22;5844;51.496;6.788;2023-05-10T15:19:35;18.60;1.00
11577;DHT22;5844;51.496;6.788;2023-05-10T15:22:01;18.40;1.00
11577;DHT22;5844;51.496;6.788;2023-05-10T15:24:27;18.40;1.00
11577;DHT22;5844;51.496;6.788;2023-05-10T15:26:53;18.30;1.00
11577;DHT22;5844;51.496;6.788;2023-05-10T15:29:19;18.20;1.00
11577;DHT22;5844;51.496;6.788;2023-05-10T15:31:48;18.00;1.00
11577;DHT22;5844;51.496;6.788;2023-05-10T15:34:15;17.80;1.00
11577;DHT22;5844;51.496;6.788;2023-05-10T15:36:41;17.70;1.00
11577;DHT22;5844;51.496;6.788;2023-05-10T15:39:06;17.60;1.00
11577;DHT22;5844;51.496;6.788;2023-05-10T15:41:32;17.40;1.00
11577;DHT22;5844;51.496;6.788;2023-05-10T15:43:58;17.40;1.00
11577;DHT22;5844;51.496;6.788;2023-05-10T15:46:27;17.30;1.00
11577;DHT22;5844;51.496;6.788;2023-05-10T15:48:53;17.20;1.00
11577;DHT22;5844;51.496;6.788;2023-05-10T15:51:19;17.30;1.00
11577;DHT22;5844;51.496;6.788;2023-05-10T15:53:45;17.20;1.00
11577;DHT22;5844;51.496;6.788;2023-05-10T15:56:11;17.30;1.00
11577;DHT22;5844;51.496;6.788;2023-05-10T15:58:37;17.10;1.00
11577;DHT22;5844;51.496;6.788;2023-05-10T16:01:04;16.90;1.00
11577;DHT22;5844;51.496;6.788;2023-05-10T16:03:33;16.80;1.00
11577;DHT22;5844;51.496;6.788;2023-05-10T16:05:59;16.50;1.00
11577;DHT22;5844;51.496;6.788;2023-05-10T16:08:26;16.30;1.00
11577;DHT22;5844;51.496;6.788;2023-05-10T16:10:52;16.10;1.00
11577;DHT22;5844;51.496;6.788;2023-05-10T16:13:17;15.90;1.00
11577;DHT22;5844;51.496;6.788;2023-05-10T16:15:43;15.70;1.00
11577;DHT22;5844;51.496;6.788;2023-05-10T16:18:09;15.60;1.00
11577;DHT22;5844;51.496;6.788;2023-05-10T16:20:35;15.40;1.00
11577;DHT22;5844;51.496;6.788;2023-05-10T16:23:03;15.40;1.00
11577;DHT22;5844;51.496;6.788;2023-05-10T16:25:29;15.40;1.00
11577;DHT22;5844;51.496;6.788;2023-05-10T16:27:55;15.30;1.00
11577;DHT22;5844;51.496;6.788;2023-05-10T16:30:21;15.10;1.00
11577;DHT22;5844;51.496;6.788;2023-05-10T16:32:48;14.90;1.00